sensor_id;sensor_type;location;lat;lon;timestamp;pressure;altitude;pressure_sealevel;temperature;humidity
55550;BME280;41397;49.972;18.944;2023-09-30T00:00:24;102219.41;;;21.50;58.54
55550;BME280;41397;49.972;18.944;2023-09-30T00:03:30;102213.28;;;21.46;58.51
55550;BME280;41397;49.972;18.944;2023-09-30T00:06:31;102222.83;;;21.44;58.70
55550;BME280;41397;49.972;18.944;2023-09-30T00:09:32;102216.72;;;21.40;58.67
55550;BME280;41397;49.972;18.944;2023-09-30T00:12:34;102209.57;;;21.38;58.76
55550;BME280;41397;49.972;18.944;2023-09-30T00:15:35;102204.62;;;21.32;58.86
55550;BME280;41397;49.972;18.944;2023-09-30T00:18:37;102207.88;;;21.27;58.91
55550;BME280;41397;49.972;18.944;2023-09-30T00:21:38;102206.87;;;21.28;58.93
55550;BME280;41397;49.972;18.944;2023-09-30T00:24:39;102208.60;;;21.29;58.96
55550;BME280;41397;49.972;18.944;2023-09-30T00:27:40;102198.52;;;21.28;59.06
55550;BME280;41397;49.972;18.944;2023-09-30T00:30:42;102197.14;;;21.32;58.65
55550;BME280;41397;49.972;18.944;2023-09-30T00:33:48;102197.62;;;21.27;59.00
55550;BME280;41397;49.972;18.944;2023-09-30T00:36:49;102196.53;;;21.20;58.92
55550;BME280;41397;49.972;18.944;2023-09-30T00:39:50;102186.75;;;21.16;59.03
55550;BME280;41397;49.972;18.944;2023-09-30T00:42:51;102189.53;;;21.16;59.07
55550;BME280;41397;49.972;18.944;2023-09-30T00:49:07;102175.80;;;21.15;59.24
55550;BME280;41397;49.972;18.944;2023-09-30T00:52:10;102182.70;;;21.11;59.21
55550;BME280;41397;49.972;18.944;2023-09-30T00:55:12;102181.29;;;21.06;59.42
55550;BME280;41397;49.972;18.944;2023-09-30T00:58:13;102180.24;;;21.08;59.43
55550;BME280;41397;49.972;18.944;2023-09-30T01:01:15;102186.53;;;21.10;59.37
55550;BME280;41397;49.972;18.944;2023-09-30T01:04:17;102181.12;;;21.08;59.48
55550;BME280;41397;49.972;18.944;2023-09-30T01:07:19;102187.87;;;21.05;59.77
55550;BME280;41397;49.972;18.944;2023-09-30T01:10:23;102182.63;;;21.02;59.68
55550;BME280;41397;49.972;18.944;2023-09-30T01:13:32;102182.63;;;21.02;59.76
55550;BME280;41397;49.972;18.944;2023-09-30T01:16:35;102184.70;;;21.00;59.76
55550;BME280;41397;49.972;18.944;2023-09-30T01:19:36;102180.72;;;21.03;59.72
55550;BME280;41397;49.972;18.944;2023-09-30T01:22:38;102173.42;;;21.02;59.98
55550;BME280;41397;49.972;18.944;2023-09-30T01:25:40;102180.90;;;21.01;59.96
55550;BME280;41397;49.972;18.944;2023-09-30T01:28:44;102181.77;;;21.02;60.06
55550;BME280;41397;49.972;18.944;2023-09-30T01:31:49;102181.91;;;21.00;59.99
55550;BME280;41397;49.972;18.944;2023-09-30T01:34:54;102182.63;;;21.02;60.14
55550;BME280;41397;49.972;18.944;2023-09-30T01:37:55;102189.79;;;21.05;59.96
55550;BME280;41397;49.972;18.944;2023-09-30T01:40:57;102185.95;;;21.06;59.94
55550;BME280;41397;49.972;18.944;2023-09-30T01:43:58;102183.02;;;21.08;59.87
55550;BME280;41397;49.972;18.944;2023-09-30T01:47:02;102185.95;;;21.06;59.91
55550;BME280;41397;49.972;18.944;2023-09-30T01:50:04;102188.45;;;21.09;59.77
55550;BME280;41397;49.972;18.944;2023-09-30T01:53:08;102188.27;;;21.11;59.85
55550;BME280;41397;49.972;18.944;2023-09-30T01:56:13;102188.45;;;21.09;60.02
55550;BME280;41397;49.972;18.944;2023-09-30T01:59:14;102187.41;;;21.10;59.83
55550;BME280;41397;49.972;18.944;2023-09-30T02:02:15;102190.02;;;21.12;59.87
55550;BME280;41397;49.972;18.944;2023-09-30T02:05:16;102186.53;;;21.10;59.81
55550;BME280;41397;49.972;18.944;2023-09-30T02:08:18;102184.62;;;21.10;60.04
55550;BME280;41397;49.972;18.944;2023-09-30T02:11:20;102182.16;;;21.07;60.20
55550;BME280;41397;49.972;18.944;2023-09-30T02:14:21;102181.91;;;21.00;60.59
55550;BME280;41397;49.972;18.944;2023-09-30T02:17:22;102175.27;;;20.93;60.71
55550;BME280;41397;49.972;18.944;2023-09-30T02:20:24;102173.67;;;20.91;61.05
55550;BME280;41397;49.972;18.944;2023-09-30T02:23:30;102174.69;;;20.90;60.85
55550;BME280;41397;49.972;18.944;2023-09-30T02:26:31;102170.02;;;20.90;61.08
55550;BME280;41397;49.972;18.944;2023-09-30T02:29:34;102174.69;;;20.90;60.93
55550;BME280;41397;49.972;18.944;2023-09-30T02:32:37;102172.81;;;20.90;61.11
55550;BME280;41397;49.972;18.944;2023-09-30T02:35:43;102171.61;;;20.93;60.89
55550;BME280;41397;49.972;18.944;2023-09-30T02:38:52;102178.77;;;20.95;60.92
55550;BME280;41397;49.972;18.944;2023-09-30T02:41:54;102170.24;;;20.97;60.91
55550;BME280;41397;49.972;18.944;2023-09-30T02:44:55;102174.77;;;20.98;61.02
55550;BME280;41397;49.972;18.944;2023-09-30T02:47:57;102169.05;;;20.99;60.58
55550;BME280;41397;49.972;18.944;2023-09-30T02:51:00;102166.27;;;20.99;60.53
55550;BME280;41397;49.972;18.944;2023-09-30T02:54:02;102160.38;;;21.02;60.66
55550;BME280;41397;49.972;18.944;2023-09-30T02:57:05;102153.95;;;21.02;60.59
55550;BME280;41397;49.972;18.944;2023-09-30T03:00:10;102157.21;;;20.97;60.79
55550;BME280;41397;49.972;18.944;2023-09-30T03:03:23;102158.97;;;20.98;60.65
55550;BME280;41397;49.972;18.944;2023-09-30T03:06:26;102155.47;;;20.96;60.73
55550;BME280;41397;49.972;18.944;2023-09-30T03:09:27;102165.07;;;21.02;60.36
55550;BME280;41397;49.972;18.944;2023-09-30T03:12:29;102174.29;;;21.02;60.27
55550;BME280;41397;49.972;18.944;2023-09-30T03:15:32;102160.92;;;21.06;60.01
55550;BME280;41397;49.972;18.944;2023-09-30T03:18:34;102165.80;;;21.04;60.39
55550;BME280;41397;49.972;18.944;2023-09-30T03:21:36;102160.92;;;21.06;60.32
55550;BME280;41397;49.972;18.944;2023-09-30T03:24:38;102167.05;;;21.10;60.17
55550;BME280;41397;49.972;18.944;2023-09-30T03:27:40;102162.91;;;21.14;60.17
55550;BME280;41397;49.972;18.944;2023-09-30T03:30:42;102163.48;;;21.17;60.18
55550;BME280;41397;49.972;18.944;2023-09-30T03:33:43;102161.38;;;21.19;60.35
55550;BME280;41397;49.972;18.944;2023-09-30T03:36:44;102165.92;;;21.20;60.33
55550;BME280;41397;49.972;18.944;2023-09-30T03:39:46;102169.58;;;21.21;60.46
55550;BME280;41397;49.972;18.944;2023-09-30T03:42:50;102170.63;;;21.20;60.67
55550;BME280;41397;49.972;18.944;2023-09-30T03:45:51;102176.19;;;21.20;60.93
55550;BME280;41397;49.972;18.944;2023-09-30T03:48:55;102180.38;;;21.24;61.02
55550;BME280;41397;49.972;18.944;2023-09-30T03:51:56;102181.43;;;21.23;61.60
55550;BME280;41397;49.972;18.944;2023-09-30T03:54:59;102177.60;;;21.24;61.52
55550;BME280;41397;49.972;18.944;2023-09-30T03:58:04;102179.34;;;21.25;62.17
55550;BME280;41397;49.972;18.944;2023-09-30T04:01:05;102181.11;;;21.26;62.04
55550;BME280;41397;49.972;18.944;2023-09-30T04:04:07;102188.07;;;21.30;62.33
55550;BME280;41397;49.972;18.944;2023-09-30T04:07:11;102191.03;;;21.28;61.79
55550;BME280;41397;49.972;18.944;2023-09-30T04:10:13;102185.28;;;21.30;61.58
55550;BME280;41397;49.972;18.944;2023-09-30T04:13:15;102188.94;;;21.31;62.19
55550;BME280;41397;49.972;18.944;2023-09-30T04:16:17;102197.47;;;21.29;62.68
55550;BME280;41397;49.972;18.944;2023-09-30T04:19:20;102205.09;;;21.27;63.02
55550;BME280;41397;49.972;18.944;2023-09-30T04:22:22;102205.64;;;21.31;63.01
55550;BME280;41397;49.972;18.944;2023-09-30T04:25:26;102212.10;;;21.31;62.50
55550;BME280;41397;49.972;18.944;2023-09-30T04:28:28;102213.99;;;21.31;62.31
55550;BME280;41397;49.972;18.944;2023-09-30T04:31:30;102217.66;;;21.31;62.83
55550;BME280;41397;49.972;18.944;2023-09-30T04:34:31;102212.10;;;21.31;63.06
55550;BME280;41397;49.972;18.944;2023-09-30T04:37:32;102215.04;;;21.29;63.25
55550;BME280;41397;49.972;18.944;2023-09-30T04:40:34;102218.14;;;21.26;63.79
55550;BME280;41397;49.972;18.944;2023-09-30T04:43:36;102214.49;;;21.26;63.19
55550;BME280;41397;49.972;18.944;2023-09-30T04:49:04;102216.41;;;21.25;63.70
55550;BME280;41397;49.972;18.944;2023-09-30T04:52:05;102224.57;;;21.27;63.55
55550;BME280;41397;49.972;18.944;2023-09-30T04:55:09;102217.81;;;21.29;63.37
55550;BME280;41397;49.972;18.944;2023-09-30T04:58:14;102221.64;;;21.28;63.22
55550;BME280;41397;49.972;18.944;2023-09-30T05:01:15;102218.68;;;21.30;63.49
55550;BME280;41397;49.972;18.944;2023-09-30T05:04:19;102225.45;;;21.27;63.47
55550;BME280;41397;49.972;18.944;2023-09-30T05:07:20;102229.27;;;21.26;63.66
55550;BME280;41397;49.972;18.944;2023-09-30T05:10:25;102227.54;;;21.25;64.02
55550;BME280;41397;49.972;18.944;2023-09-30T05:13:26;102231.02;;;21.27;64.11
55550;BME280;41397;49.972;18.944;2023-09-30T05:16:28;102234.84;;;21.26;63.71
55550;BME280;41397;49.972;18.944;2023-09-30T05:19:31;102244.77;;;21.29;63.86
55550;BME280;41397;49.972;18.944;2023-09-30T05:22:38;102247.88;;;21.26;64.43
55550;BME280;41397;49.972;18.944;2023-09-30T05:25:46;102243.19;;;21.26;64.36
55550;BME280;41397;49.972;18.944;2023-09-30T05:28:47;102247.55;;;21.29;64.55
55550;BME280;41397;49.972;18.944;2023-09-30T05:31:49;102243.72;;;21.30;64.65
55550;BME280;41397;49.972;18.944;2023-09-30T05:34:50;102252.07;;;21.30;64.60
55550;BME280;41397;49.972;18.944;2023-09-30T05:37:54;102262.20;;;21.31;64.39
55550;BME280;41397;49.972;18.944;2023-09-30T05:40:57;102252.80;;;21.32;64.37
55550;BME280;41397;49.972;18.944;2023-09-30T05:43:59;102266.38;;;21.35;64.53
55550;BME280;41397;49.972;18.944;2023-09-30T05:47:01;102269.16;;;21.35;64.97
55550;BME280;41397;49.972;18.944;2023-09-30T05:50:03;102276.80;;;21.33;65.09
55550;BME280;41397;49.972;18.944;2023-09-30T05:53:05;102275.78;;;21.34;64.85
55550;BME280;41397;49.972;18.944;2023-09-30T05:56:08;102277.52;;;21.35;64.64
55550;BME280;41397;49.972;18.944;2023-09-30T05:59:12;102282.07;;;21.36;64.46
55550;BME280;41397;49.972;18.944;2023-09-30T06:02:14;102286.91;;;21.34;64.91
55550;BME280;41397;49.972;18.944;2023-09-30T06:05:16;102286.63;;;21.37;64.90
55550;BME280;41397;49.972;18.944;2023-09-30T06:08:19;102298.48;;;21.39;64.94
55550;BME280;41397;49.972;18.944;2023-09-30T06:11:22;102305.63;;;21.42;64.87
55550;BME280;41397;49.972;18.944;2023-09-30T06:14:29;102294.49;;;21.42;64.93
55550;BME280;41397;49.972;18.944;2023-09-30T06:17:36;102315.72;;;21.43;64.92
55550;BME280;41397;49.972;18.944;2023-09-30T06:20:37;102308.96;;;21.45;64.59
55550;BME280;41397;49.972;18.944;2023-09-30T06:23:39;102316.11;;;21.48;64.35
55550;BME280;41397;49.972;18.944;2023-09-30T06:26:40;102318.91;;;21.48;64.50
55550;BME280;41397;49.972;18.944;2023-09-30T06:29:44;102324.01;;;21.53;64.62
55550;BME280;41397;49.972;18.944;2023-09-30T06:32:47;102324.54;;;21.56;64.53
55550;BME280;41397;49.972;18.944;2023-09-30T06:35:49;102330.11;;;21.56;64.36
55550;BME280;41397;49.972;18.944;2023-09-30T06:38:53;102331.70;;;21.59;64.26
55550;BME280;41397;49.972;18.944;2023-09-30T06:41:54;102334.16;;;21.62;64.04
55550;BME280;41397;49.972;18.944;2023-09-30T06:44:56;102339.55;;;21.63;63.63
55550;BME280;41397;49.972;18.944;2023-09-30T06:47:58;102340.12;;;21.67;63.69
55550;BME280;41397;49.972;18.944;2023-09-30T06:50:59;102343.63;;;21.69;63.49
55550;BME280;41397;49.972;18.944;2023-09-30T06:54:01;102348.30;;;21.68;63.68
55550;BME280;41397;49.972;18.944;2023-09-30T06:57:07;102358.82;;;21.75;63.35
55550;BME280;41397;49.972;18.944;2023-09-30T07:00:12;102357.05;;;21.73;63.07
55550;BME280;41397;49.972;18.944;2023-09-30T07:03:15;102364.38;;;21.75;63.00
55550;BME280;41397;49.972;18.944;2023-09-30T07:06:25;102373.62;;;21.75;63.25
55550;BME280;41397;49.972;18.944;2023-09-30T07:09:27;102381.79;;;21.77;63.55
55550;BME280;41397;49.972;18.944;2023-09-30T07:12:29;102375.02;;;21.79;63.49
55550;BME280;41397;49.972;18.944;2023-09-30T07:15:36;102382.35;;;21.80;63.78
55550;BME280;41397;49.972;18.944;2023-09-30T07:18:38;102385.30;;;21.79;64.03
55550;BME280;41397;49.972;18.944;2023-09-30T07:21:39;102388.08;;;21.79;64.26
55550;BME280;41397;49.972;18.944;2023-09-30T07:24:41;102397.30;;;21.79;64.14
55550;BME280;41397;49.972;18.944;2023-09-30T07:27:46;102391.91;;;21.78;64.35
55550;BME280;41397;49.972;18.944;2023-09-30T07:30:47;102390.32;;;21.75;64.61
55550;BME280;41397;49.972;18.944;2023-09-30T07:33:48;102395.89;;;21.75;64.65
55550;BME280;41397;49.972;18.944;2023-09-30T07:36:50;102395.16;;;21.73;65.03
55550;BME280;41397;49.972;18.944;2023-09-30T07:39:52;102398.27;;;21.70;65.15
55550;BME280;41397;49.972;18.944;2023-09-30T07:42:54;102409.55;;;21.68;65.34
55550;BME280;41397;49.972;18.944;2023-09-30T07:45:55;102404.49;;;21.64;65.89
55550;BME280;41397;49.972;18.944;2023-09-30T07:48:57;102408.46;;;21.61;66.01
55550;BME280;41397;49.972;18.944;2023-09-30T07:52:01;102404.95;;;21.59;65.96
55550;BME280;41397;49.972;18.944;2023-09-30T07:55:02;102411.39;;;21.60;66.58
55550;BME280;41397;49.972;18.944;2023-09-30T07:58:06;102419.02;;;21.58;66.58
55550;BME280;41397;49.972;18.944;2023-09-30T08:01:09;102414.49;;;21.57;66.84
55550;BME280;41397;49.972;18.944;2023-09-30T08:04:10;102414.82;;;21.54;66.62
55550;BME280;41397;49.972;18.944;2023-09-30T08:07:11;102415.54;;;21.56;66.86
55550;BME280;41397;49.972;18.944;2023-09-30T08:10:13;102427.00;;;21.53;67.04
55550;BME280;41397;49.972;18.944;2023-09-30T08:13:17;102433.44;;;21.53;67.19
55550;BME280;41397;49.972;18.944;2023-09-30T08:16:18;102436.37;;;21.52;67.06
55550;BME280;41397;49.972;18.944;2023-09-30T08:19:20;102431.84;;;21.50;67.40
55550;BME280;41397;49.972;18.944;2023-09-30T08:22:21;102437.41;;;21.50;67.51
55550;BME280;41397;49.972;18.944;2023-09-30T08:25:32;102440.20;;;21.50;67.44
55550;BME280;41397;49.972;18.944;2023-09-30T08:28:34;102435.50;;;21.51;67.58
55550;BME280;41397;49.972;18.944;2023-09-30T08:31:36;102437.41;;;21.50;67.78
55550;BME280;41397;49.972;18.944;2023-09-30T08:34:37;102443.84;;;21.51;68.22
55550;BME280;41397;49.972;18.944;2023-09-30T08:37:40;102440.20;;;21.50;68.37
55550;BME280;41397;49.972;18.944;2023-09-30T08:40:44;102438.13;;;21.53;68.23
55550;BME280;41397;49.972;18.944;2023-09-30T08:43:47;102435.50;;;21.51;68.90
55550;BME280;41397;49.972;18.944;2023-09-30T08:46:50;102435.50;;;21.51;69.30
55550;BME280;41397;49.972;18.944;2023-09-30T08:49:54;102438.28;;;21.51;69.68
55550;BME280;41397;49.972;18.944;2023-09-30T08:53:09;102436.54;;;21.50;69.89
55550;BME280;41397;49.972;18.944;2023-09-30T08:56:14;102429.37;;;21.47;70.53
55550;BME280;41397;49.972;18.944;2023-09-30T08:59:17;102432.16;;;21.47;70.88
55550;BME280;41397;49.972;18.944;2023-09-30T09:02:18;102433.90;;;21.48;71.01
55550;BME280;41397;49.972;18.944;2023-09-30T09:05:20;102431.98;;;21.49;71.30
55550;BME280;41397;49.972;18.944;2023-09-30T09:08:22;102440.02;;;21.52;71.75
55550;BME280;41397;49.972;18.944;2023-09-30T09:11:24;102443.84;;;21.51;72.21
55550;BME280;41397;49.972;18.944;2023-09-30T09:17:44;102449.41;;;21.51;72.31
55550;BME280;41397;49.972;18.944;2023-09-30T09:20:46;102445.77;;;21.50;72.32
55550;BME280;41397;49.972;18.944;2023-09-30T09:23:48;102444.88;;;21.50;73.01
55550;BME280;41397;49.972;18.944;2023-09-30T09:26:50;102447.81;;;21.48;72.64
55550;BME280;41397;49.972;18.944;2023-09-30T09:29:51;102457.21;;;21.47;73.37
55550;BME280;41397;49.972;18.944;2023-09-30T09:36:08;102459.41;;;21.44;72.83
55550;BME280;41397;49.972;18.944;2023-09-30T09:39:10;102461.33;;;21.43;72.69
55550;BME280;41397;49.972;18.944;2023-09-30T09:45:28;102465.15;;;21.42;73.42
55550;BME280;41397;49.972;18.944;2023-09-30T09:48:35;102467.34;;;21.39;73.55
55550;BME280;41397;49.972;18.944;2023-09-30T09:51:37;102469.27;;;21.38;74.07
55550;BME280;41397;49.972;18.944;2023-09-30T09:54:40;102471.73;;;21.41;73.63
55550;BME280;41397;49.972;18.944;2023-09-30T09:57:43;102471.73;;;21.41;73.92
55550;BME280;41397;49.972;18.944;2023-09-30T10:00:45;102467.75;;;21.44;74.24
55550;BME280;41397;49.972;18.944;2023-09-30T10:03:47;102464.83;;;21.45;74.46
55550;BME280;41397;49.972;18.944;2023-09-30T10:06:52;102472.00;;;21.48;74.42
55550;BME280;41397;49.972;18.944;2023-09-30T10:09:58;102471.53;;;21.53;75.00
55550;BME280;41397;49.972;18.944;2023-09-30T10:13:01;102465.65;;;21.56;74.95
55550;BME280;41397;49.972;18.944;2023-09-30T10:16:04;102469.13;;;21.58;75.00
55550;BME280;41397;49.972;18.944;2023-09-30T10:19:17;102470.58;;;21.62;74.91
55550;BME280;41397;49.972;18.944;2023-09-30T10:22:20;102469.23;;;21.66;75.11
55550;BME280;41397;49.972;18.944;2023-09-30T10:25:35;102468.20;;;21.67;75.36
55550;BME280;41397;49.972;18.944;2023-09-30T10:28:39;102476.56;;;21.67;75.54
55550;BME280;41397;49.972;18.944;2023-09-30T10:31:49;102481.08;;;21.68;75.59
55550;BME280;41397;49.972;18.944;2023-09-30T10:34:51;102484.91;;;21.67;75.68
55550;BME280;41397;49.972;18.944;2023-09-30T10:44:32;102479.76;;;21.72;75.79
55550;BME280;41397;49.972;18.944;2023-09-30T10:47:35;102479.76;;;21.72;75.94
55550;BME280;41397;49.972;18.944;2023-09-30T10:53:53;102482.36;;;21.73;76.07
55550;BME280;41397;49.972;18.944;2023-09-30T10:57:01;102471.55;;;21.70;76.10
55550;BME280;41397;49.972;18.944;2023-09-30T11:00:11;102478.16;;;21.69;76.69
55550;BME280;41397;49.972;18.944;2023-09-30T11:03:13;102476.65;;;21.75;76.30
55550;BME280;41397;49.972;18.944;2023-09-30T11:06:15;102471.08;;;21.75;77.04
55550;BME280;41397;49.972;18.944;2023-09-30T11:09:22;102473.87;;;21.75;76.82
55550;BME280;41397;49.972;18.944;2023-09-30T11:12:24;102469.16;;;21.76;77.12
55550;BME280;41397;49.972;18.944;2023-09-30T11:15:26;102475.46;;;21.78;77.35
55550;BME280;41397;49.972;18.944;2023-09-30T11:18:28;102480.31;;;21.76;77.05
55550;BME280;41397;49.972;18.944;2023-09-30T11:21:30;102483.73;;;21.69;78.03
55550;BME280;41397;49.972;18.944;2023-09-30T11:24:35;102489.80;;;21.37;78.89
55550;BME280;41397;49.972;18.944;2023-09-30T11:27:43;102489.89;;;21.36;78.66
55550;BME280;41397;49.972;18.944;2023-09-30T11:30:56;102494.31;;;21.38;78.32
55550;BME280;41397;49.972;18.944;2023-09-30T11:33:58;102487.91;;;21.28;78.61
55550;BME280;41397;49.972;18.944;2023-09-30T11:37:05;102505.52;;;21.19;78.16
55550;BME280;41397;49.972;18.944;2023-09-30T11:40:12;102508.69;;;20.96;78.21
55550;BME280;41397;49.972;18.944;2023-09-30T11:43:17;102509.30;;;20.90;77.91
55550;BME280;41397;49.972;18.944;2023-09-30T11:46:19;102509.62;;;20.87;77.96
55550;BME280;41397;49.972;18.944;2023-09-30T11:49:30;102514.75;;;20.82;77.86
55550;BME280;41397;49.972;18.944;2023-09-30T11:52:32;102512.39;;;20.87;77.84
55550;BME280;41397;49.972;18.944;2023-09-30T11:55:36;102515.19;;;20.77;76.95
55550;BME280;41397;49.972;18.944;2023-09-30T11:58:38;102523.96;;;20.82;76.88
55550;BME280;41397;49.972;18.944;2023-09-30T12:01:40;102513.84;;;20.81;76.63
55550;BME280;41397;49.972;18.944;2023-09-30T12:04:45;102518.10;;;20.76;76.52
55550;BME280;41397;49.972;18.944;2023-09-30T12:07:50;102527.49;;;20.75;76.49
55550;BME280;41397;49.972;18.944;2023-09-30T12:10:51;102522.05;;;20.73;76.18
55550;BME280;41397;49.972;18.944;2023-09-30T12:13:52;102520.31;;;20.72;76.11
55550;BME280;41397;49.972;18.944;2023-09-30T12:16:54;102512.28;;;20.69;76.29
55550;BME280;41397;49.972;18.944;2023-09-30T12:19:56;102515.33;;;20.76;76.25
55550;BME280;41397;49.972;18.944;2023-09-30T12:23:00;102514.88;;;20.80;76.04
55550;BME280;41397;49.972;18.944;2023-09-30T12:26:01;102521.61;;;20.88;76.27
55550;BME280;41397;49.972;18.944;2023-09-30T12:29:06;102522.30;;;20.90;76.03
55550;BME280;41397;49.972;18.944;2023-09-30T12:32:09;102520.42;;;20.90;76.24
55550;BME280;41397;49.972;18.944;2023-09-30T12:35:11;102537.43;;;20.87;76.16
55550;BME280;41397;49.972;18.944;2023-09-30T12:38:12;102538.43;;;20.86;76.15
55550;BME280;41397;49.972;18.944;2023-09-30T12:41:14;102535.39;;;20.79;76.19
55550;BME280;41397;49.972;18.944;2023-09-30T12:44:16;102531.27;;;20.83;76.25
55550;BME280;41397;49.972;18.944;2023-09-30T12:47:18;102540.33;;;20.86;75.92
55550;BME280;41397;49.972;18.944;2023-09-30T12:50:19;102545.90;;;20.86;75.71
55550;BME280;41397;49.972;18.944;2023-09-30T12:53:21;102546.94;;;20.84;75.78
55550;BME280;41397;49.972;18.944;2023-09-30T12:56:22;102552.34;;;20.86;75.62
55550;BME280;41397;49.972;18.944;2023-09-30T12:59:24;102551.47;;;20.76;75.50
55550;BME280;41397;49.972;18.944;2023-09-30T13:02:26;102552.09;;;20.70;75.70
55550;BME280;41397;49.972;18.944;2023-09-30T13:05:28;102558.07;;;20.75;75.55
55550;BME280;41397;49.972;18.944;2023-09-30T13:08:32;102565.67;;;20.73;75.52
55550;BME280;41397;49.972;18.944;2023-09-30T13:11:37;102556.63;;;20.71;75.21
55550;BME280;41397;49.972;18.944;2023-09-30T13:14:44;102558.38;;;20.62;75.43
55550;BME280;41397;49.972;18.944;2023-09-30T13:17:45;102571.85;;;20.67;75.69
55550;BME280;41397;49.972;18.944;2023-09-30T13:20:47;102569.49;;;20.62;75.36
55550;BME280;41397;49.972;18.944;2023-09-30T13:23:49;102579.31;;;20.66;74.74
55550;BME280;41397;49.972;18.944;2023-09-30T13:26:52;102568.32;;;20.65;74.79
55550;BME280;41397;49.972;18.944;2023-09-30T13:29:53;102567.88;;;20.59;74.98
55550;BME280;41397;49.972;18.944;2023-09-30T13:32:59;102572.72;;;20.67;74.71
55550;BME280;41397;49.972;18.944;2023-09-30T13:36:00;102574.76;;;20.65;74.24
55550;BME280;41397;49.972;18.944;2023-09-30T13:39:03;102570.66;;;20.69;74.01
55550;BME280;41397;49.972;18.944;2023-09-30T13:42:06;102568.77;;;20.70;73.81
55550;BME280;41397;49.972;18.944;2023-09-30T13:45:09;102571.11;;;20.74;73.99
55550;BME280;41397;49.972;18.944;2023-09-30T13:48:10;102567.71;;;20.80;73.82
55550;BME280;41397;49.972;18.944;2023-09-30T13:51:12;102573.84;;;20.84;74.07
55550;BME280;41397;49.972;18.944;2023-09-30T13:54:13;102573.84;;;20.94;74.63
55550;BME280;41397;49.972;18.944;2023-09-30T13:57:16;102576.17;;;20.98;73.91
55550;BME280;41397;49.972;18.944;2023-09-30T14:00:17;102579.78;;;21.09;74.17
55550;BME280;41397;49.972;18.944;2023-09-30T14:03:19;102581.38;;;21.11;74.12
55550;BME280;41397;49.972;18.944;2023-09-30T14:06:20;102577.72;;;21.20;73.41
55550;BME280;41397;49.972;18.944;2023-09-30T14:09:22;102573.44;;;21.26;73.20
55550;BME280;41397;49.972;18.944;2023-09-30T14:12:23;102570.05;;;21.32;73.01
55550;BME280;41397;49.972;18.944;2023-09-30T14:15:24;102567.84;;;21.36;73.32
55550;BME280;41397;49.972;18.944;2023-09-30T14:18:29;102569.88;;;21.43;73.03
55550;BME280;41397;49.972;18.944;2023-09-30T14:21:30;102565.45;;;21.50;72.96
55550;BME280;41397;49.972;18.944;2023-09-30T14:24:33;102565.15;;;21.54;73.03
55550;BME280;41397;49.972;18.944;2023-09-30T14:27:35;102557.66;;;21.54;73.10
55550;BME280;41397;49.972;18.944;2023-09-30T14:30:36;102561.48;;;21.53;73.01
55550;BME280;41397;49.972;18.944;2023-09-30T14:33:37;102574.37;;;21.54;72.74
55550;BME280;41397;49.972;18.944;2023-09-30T14:36:39;102565.45;;;21.50;72.35
55550;BME280;41397;49.972;18.944;2023-09-30T14:39:40;102569.12;;;21.51;72.31
55550;BME280;41397;49.972;18.944;2023-09-30T14:42:42;102571.03;;;21.50;72.15
55550;BME280;41397;49.972;18.944;2023-09-30T14:45:43;102567.52;;;21.48;72.26
55550;BME280;41397;49.972;18.944;2023-09-30T14:48:44;102557.73;;;21.44;72.17
55550;BME280;41397;49.972;18.944;2023-09-30T14:51:46;102561.52;;;21.43;72.09
55550;BME280;41397;49.972;18.944;2023-09-30T14:54:49;102549.52;;;21.43;72.12
55550;BME280;41397;49.972;18.944;2023-09-30T14:57:50;102553.49;;;21.40;71.94
55550;BME280;41397;49.972;18.944;2023-09-30T15:00:51;102555.23;;;21.41;71.98
55550;BME280;41397;49.972;18.944;2023-09-30T15:03:54;102565.36;;;21.42;71.77
55550;BME280;41397;49.972;18.944;2023-09-30T15:06:55;102564.48;;;21.42;71.37
55550;BME280;41397;49.972;18.944;2023-09-30T15:09:57;102567.09;;;21.43;71.44
55550;BME280;41397;49.972;18.944;2023-09-30T15:12:59;102581.01;;;21.43;70.54
55550;BME280;41397;49.972;18.944;2023-09-30T15:16:02;102576.94;;;21.38;70.73
55550;BME280;41397;49.972;18.944;2023-09-30T15:19:04;102584.11;;;21.40;70.52
55550;BME280;41397;49.972;18.944;2023-09-30T15:22:05;102582.64;;;21.36;69.14
55550;BME280;41397;49.972;18.944;2023-09-30T15:25:07;102585.14;;;21.29;68.32
55550;BME280;41397;49.972;18.944;2023-09-30T15:28:10;102586.77;;;21.22;67.27
55550;BME280;41397;49.972;18.944;2023-09-30T15:31:12;102585.90;;;21.22;68.04
55550;BME280;41397;49.972;18.944;2023-09-30T15:34:14;102591.63;;;21.20;68.01
55550;BME280;41397;49.972;18.944;2023-09-30T15:37:15;102602.91;;;21.19;67.79
55550;BME280;41397;49.972;18.944;2023-09-30T15:40:18;102602.02;;;21.18;67.18
55550;BME280;41397;49.972;18.944;2023-09-30T15:43:23;102603.93;;;21.18;66.93
55550;BME280;41397;49.972;18.944;2023-09-30T15:46:24;102601.30;;;21.16;66.88
55550;BME280;41397;49.972;18.944;2023-09-30T15:49:26;102603.81;;;21.10;67.06
55550;BME280;41397;49.972;18.944;2023-09-30T15:52:27;102612.59;;;21.05;67.40
55550;BME280;41397;49.972;18.944;2023-09-30T15:55:28;102614.34;;;21.06;67.06
55550;BME280;41397;49.972;18.944;2023-09-30T15:58:30;102610.13;;;21.02;67.28
55550;BME280;41397;49.972;18.944;2023-09-30T16:01:31;102615.11;;;20.98;66.66
55550;BME280;41397;49.972;18.944;2023-09-30T16:04:34;102619.38;;;20.93;66.86
55550;BME280;41397;49.972;18.944;2023-09-30T16:07:35;102625.95;;;20.92;67.22